sensor_id;sensor_type;location;lat;lon;timestamp;pressure;altitude;pressure_sealevel;temperature;humidity
34081;BME280;20358;50.272;19.026;2024-03-22T00:02:04;98473.84;;;15.83;50.52
34081;BME280;20358;50.272;19.026;2024-03-22T00:05:06;98471.13;;;15.84;50.55
34081;BME280;20358;50.272;19.026;2024-03-22T00:08:09;98469.34;;;15.85;50.74
34081;BME280;20358;50.272;19.026;2024-03-22T00:11:11;98472.50;;;15.90;50.57
34081;BME280;20358;50.272;19.026;2024-03-22T00:14:17;98470.59;;;15.92;50.59
34081;BME280;20358;50.272;19.026;2024-03-22T00:17:21;98470.16;;;15.98;50.51
34081;BME280;20358;50.272;19.026;2024-03-22T00:20:24;98467.00;;;15.93;50.89
34081;BME280;20358;50.272;19.026;2024-03-22T00:23:26;98412.38;;;15.70;50.77
34081;BME280;20358;50.272;19.026;2024-03-22T00:26:29;98463.63;;;15.91;51.12
34081;BME280;20358;50.272;19.026;2024-03-22T00:29:31;98462.38;;;15.84;51.48
34081;BME280;20358;50.272;19.026;2024-03-22T00:32:36;98465.53;;;15.89;51.45
34081;BME280;20358;50.272;19.026;2024-03-22T00:35:38;98455.00;;;15.89;51.76
34081;BME280;20358;50.272;19.026;2024-03-22T00:38:41;98455.00;;;15.89;51.73
34081;BME280;20358;50.272;19.026;2024-03-22T00:41:43;98458.16;;;15.94;51.78
34081;BME280;20358;50.272;19.026;2024-03-22T00:44:46;98454.66;;;15.81;51.93
34081;BME280;20358;50.272;19.026;2024-03-22T00:47:51;98464.06;;;15.85;51.82
34081;BME280;20358;50.272;19.026;2024-03-22T00:50:53;98459.22;;;15.91;51.82
34081;BME280;20358;50.272;19.026;2024-03-22T00:53:55;98454.78;;;15.92;51.87
34081;BME280;20358;50.272;19.026;2024-03-22T00:56:58;98451.63;;;15.87;51.96
34081;BME280;20358;50.272;19.026;2024-03-22T01:00:00;98451.63;;;15.87;52.10
34081;BME280;20358;50.272;19.026;2024-03-22T01:03:06;98451.09;;;15.82;52.27
34081;BME280;20358;50.272;19.026;2024-03-22T01:06:08;98451.38;;;15.65;53.02
34081;BME280;20358;50.272;19.026;2024-03-22T01:09:11;98452.03;;;15.56;53.25
34081;BME280;20358;50.272;19.026;2024-03-22T01:12:13;98455.53;;;15.42;54.13
34081;BME280;20358;50.272;19.026;2024-03-22T01:15:15;98451.53;;;15.36;54.22
34081;BME280;20358;50.272;19.026;2024-03-22T01:18:20;98451.31;;;15.39;54.20
34081;BME280;20358;50.272;19.026;2024-03-22T01:21:23;98456.06;;;15.34;54.60
34081;BME280;20358;50.272;19.026;2024-03-22T01:24:26;98450.44;;;15.26;55.00
34081;BME280;20358;50.272;19.026;2024-03-22T01:27:29;98450.31;;;15.15;55.43
34081;BME280;20358;50.272;19.026;2024-03-22T01:30:31;98448.28;;;15.06;55.97
34081;BME280;20358;50.272;19.026;2024-03-22T01:33:36;98456.19;;;15.06;56.21
34081;BME280;20358;50.272;19.026;2024-03-22T01:36:38;98447.94;;;14.98;56.44
34081;BME280;20358;50.272;19.026;2024-03-22T01:39:41;98454.97;;;14.85;57.07
34081;BME280;20358;50.272;19.026;2024-03-22T01:42:43;98462.06;;;14.70;57.74
34081;BME280;20358;50.272;19.026;2024-03-22T01:45:46;98461.94;;;14.72;57.64
34081;BME280;20358;50.272;19.026;2024-03-22T01:48:51;98469.47;;;14.78;57.54
34081;BME280;20358;50.272;19.026;2024-03-22T01:51:55;98460.22;;;14.85;57.43
34081;BME280;20358;50.272;19.026;2024-03-22T01:54:57;98466.47;;;14.70;58.05
34081;BME280;20358;50.272;19.026;2024-03-22T01:58:00;98468.16;;;14.71;58.10
34081;BME280;20358;50.272;19.026;2024-03-22T02:01:03;98471.94;;;14.67;58.20
34081;BME280;20358;50.272;19.026;2024-03-22T02:04:09;98475.31;;;14.69;58.32
34081;BME280;20358;50.272;19.026;2024-03-22T02:07:17;98475.41;;;14.67;58.50
34081;BME280;20358;50.272;19.026;2024-03-22T02:10:20;98470.22;;;14.66;58.71
34081;BME280;20358;50.272;19.026;2024-03-22T02:13:22;98472.03;;;14.65;58.69
34081;BME280;20358;50.272;19.026;2024-03-22T02:16:25;98478.88;;;14.68;58.58
34081;BME280;20358;50.272;19.026;2024-03-22T02:19:30;98465.72;;;14.68;58.74
34081;BME280;20358;50.272;19.026;2024-03-22T02:22:33;98461.59;;;14.64;58.97
34081;BME280;20358;50.272;19.026;2024-03-22T02:25:37;98466.47;;;14.70;58.64
34081;BME280;20358;50.272;19.026;2024-03-22T02:28:40;98465.56;;;14.57;59.15
34081;BME280;20358;50.272;19.026;2024-03-22T02:31:42;98473.81;;;14.65;59.05
34081;BME280;20358;50.272;19.026;2024-03-22T02:34:45;98461.22;;;14.70;58.96
34081;BME280;20358;50.272;19.026;2024-03-22T02:37:47;98458.47;;;14.71;58.88
34081;BME280;20358;50.272;19.026;2024-03-22T02:40:53;98456.88;;;14.69;58.81
34081;BME280;20358;50.272;19.026;2024-03-22T02:43:55;98453.50;;;14.67;59.02
34081;BME280;20358;50.272;19.026;2024-03-22T02:46:58;98453.41;;;14.68;58.90
34081;BME280;20358;50.272;19.026;2024-03-22T02:50:00;98449.41;;;14.63;59.16
34081;BME280;20358;50.272;19.026;2024-03-22T02:53:03;98449.19;;;14.66;59.13
34081;BME280;20358;50.272;19.026;2024-03-22T02:56:08;98463.09;;;14.68;59.05
34081;BME280;20358;50.272;19.026;2024-03-22T02:59:11;98463.66;;;14.59;59.25
34081;BME280;20358;50.272;19.026;2024-03-22T03:02:13;98461.47;;;14.39;59.96
34081;BME280;20358;50.272;19.026;2024-03-22T03:05:16;98456.66;;;14.45;59.87
34081;BME280;20358;50.272;19.026;2024-03-22T03:08:18;98450.94;;;14.39;60.18
34081;BME280;20358;50.272;19.026;2024-03-22T03:11:24;98457.88;;;14.25;60.70
34081;BME280;20358;50.272;19.026;2024-03-22T03:14:26;98448.28;;;14.24;60.75
34081;BME280;20358;50.272;19.026;2024-03-22T03:17:28;98440.13;;;14.29;60.55
34081;BME280;20358;50.272;19.026;2024-03-22T03:20:30;98460.03;;;14.19;61.07
34081;BME280;20358;50.272;19.026;2024-03-22T03:23:33;98450.91;;;14.24;60.77
34081;BME280;20358;50.272;19.026;2024-03-22T03:26:38;98448.59;;;14.34;60.71
34081;BME280;20358;50.272;19.026;2024-03-22T03:29:40;98449.78;;;14.28;60.87
34081;BME280;20358;50.272;19.026;2024-03-22T03:32:42;98446.06;;;14.18;61.20
34081;BME280;20358;50.272;19.026;2024-03-22T03:35:46;98436.28;;;14.20;61.18
34081;BME280;20358;50.272;19.026;2024-03-22T03:38:48;98437.38;;;14.30;60.80
34081;BME280;20358;50.272;19.026;2024-03-22T03:41:53;98433.66;;;14.35;60.71
34081;BME280;20358;50.272;19.026;2024-03-22T03:44:55;98432.13;;;14.30;60.69
34081;BME280;20358;50.272;19.026;2024-03-22T03:47:58;98429.13;;;14.22;60.99
34081;BME280;20358;50.272;19.026;2024-03-22T03:51:00;98433.94;;;14.16;61.27
34081;BME280;20358;50.272;19.026;2024-03-22T03:54:03;98425.94;;;14.17;61.13
34081;BME280;20358;50.272;19.026;2024-03-22T03:57:08;98423.50;;;14.14;61.07
34081;BME280;20358;50.272;19.026;2024-03-22T04:00:11;98425.75;;;14.20;61.06
34081;BME280;20358;50.272;19.026;2024-03-22T04:03:14;98427.25;;;14.24;60.88
34081;BME280;20358;50.272;19.026;2024-03-22T04:06:17;98437.94;;;14.21;60.65
34081;BME280;20358;50.272;19.026;2024-03-22T04:09:19;98427.84;;;14.15;60.72
34081;BME280;20358;50.272;19.026;2024-03-22T04:12:24;98421.06;;;14.11;60.84
34081;BME280;20358;50.272;19.026;2024-03-22T04:15:26;98430.84;;;14.09;60.92
34081;BME280;20358;50.272;19.026;2024-03-22T04:18:29;98414.69;;;14.01;61.19
34081;BME280;20358;50.272;19.026;2024-03-22T04:21:31;98428.03;;;13.84;61.67
34081;BME280;20358;50.272;19.026;2024-03-22T04:24:33;98420.34;;;13.95;61.38
34081;BME280;20358;50.272;19.026;2024-03-22T04:27:38;98422.88;;;13.97;61.60
34081;BME280;20358;50.272;19.026;2024-03-22T04:30:41;98420.97;;;13.99;61.52
34081;BME280;20358;50.272;19.026;2024-03-22T04:33:43;98417.78;;;13.94;61.53
34081;BME280;20358;50.272;19.026;2024-03-22T04:36:46;98415.34;;;14.05;61.40
34081;BME280;20358;50.272;19.026;2024-03-22T04:39:48;98412.66;;;13.92;61.54
34081;BME280;20358;50.272;19.026;2024-03-22T04:42:53;98409.06;;;14.07;61.34
34081;BME280;20358;50.272;19.026;2024-03-22T04:45:55;98426.72;;;14.05;61.15
34081;BME280;20358;50.272;19.026;2024-03-22T04:48:58;98438.06;;;14.06;61.15
34081;BME280;20358;50.272;19.026;2024-03-22T04:52:00;98421.09;;;13.97;61.15
34081;BME280;20358;50.272;19.026;2024-03-22T04:55:04;98421.16;;;13.96;61.30
34081;BME280;20358;50.272;19.026;2024-03-22T04:58:09;98435.91;;;13.98;61.21
34081;BME280;20358;50.272;19.026;2024-03-22T05:01:12;98432.53;;;13.96;61.24
34081;BME280;20358;50.272;19.026;2024-03-22T05:04:14;98446.13;;;13.89;61.24
34081;BME280;20358;50.272;19.026;2024-03-22T05:07:17;98437.25;;;13.77;61.32
34081;BME280;20358;50.272;19.026;2024-03-22T05:10:19;98441.94;;;13.72;61.39
34081;BME280;20358;50.272;19.026;2024-03-22T05:13:24;98445.94;;;13.78;61.17
34081;BME280;20358;50.272;19.026;2024-03-22T05:16:26;98435.75;;;13.87;60.85
34081;BME280;20358;50.272;19.026;2024-03-22T05:19:29;98443.22;;;13.93;60.03
34081;BME280;20358;50.272;19.026;2024-03-22T05:22:31;98441.81;;;13.88;59.76
34081;BME280;20358;50.272;19.026;2024-03-22T05:25:34;98441.91;;;13.86;59.02
34081;BME280;20358;50.272;19.026;2024-03-22T05:28:38;98419.75;;;13.48;58.57
34081;BME280;20358;50.272;19.026;2024-03-22T05:31:47;98460.31;;;13.72;57.82
34081;BME280;20358;50.272;19.026;2024-03-22T05:34:49;98463.81;;;13.43;56.91
34081;BME280;20358;50.272;19.026;2024-03-22T05:37:52;98462.91;;;13.58;56.71
34081;BME280;20358;50.272;19.026;2024-03-22T05:40:54;98455.94;;;13.57;55.71
34081;BME280;20358;50.272;19.026;2024-03-22T05:44:00;98445.84;;;13.51;55.01
34081;BME280;20358;50.272;19.026;2024-03-22T05:47:02;98449.94;;;13.41;55.00
34081;BME280;20358;50.272;19.026;2024-03-22T05:50:06;98451.22;;;13.34;54.51
34081;BME280;20358;50.272;19.026;2024-03-22T05:53:09;98446.91;;;13.33;54.52
34081;BME280;20358;50.272;19.026;2024-03-22T05:56:12;98452.16;;;13.33;54.71
34081;BME280;20358;50.272;19.026;2024-03-22T05:59:17;98456.88;;;13.42;54.49
34081;BME280;20358;50.272;19.026;2024-03-22T06:02:20;98446.63;;;13.37;54.43
34081;BME280;20358;50.272;19.026;2024-03-22T06:05:22;98440.53;;;13.23;54.71
34081;BME280;20358;50.272;19.026;2024-03-22T06:08:25;98432.66;;;13.37;54.55
34081;BME280;20358;50.272;19.026;2024-03-22T06:11:27;98441.09;;;13.42;54.38
34081;BME280;20358;50.272;19.026;2024-03-22T06:14:33;98435.69;;;13.45;54.17
34081;BME280;20358;50.272;19.026;2024-03-22T06:17:35;98437.84;;;13.38;54.50
34081;BME280;20358;50.272;19.026;2024-03-22T06:20:38;98448.75;;;13.31;54.52
34081;BME280;20358;50.272;19.026;2024-03-22T06:23:40;98454.00;;;13.31;54.49
34081;BME280;20358;50.272;19.026;2024-03-22T06:26:43;98453.66;;;13.37;54.63
34081;BME280;20358;50.272;19.026;2024-03-22T06:29:48;98451.03;;;13.23;54.90
34081;BME280;20358;50.272;19.026;2024-03-22T06:32:51;98452.53;;;13.27;55.09
34081;BME280;20358;50.272;19.026;2024-03-22T06:35:53;98449.03;;;13.26;55.18
34081;BME280;20358;50.272;19.026;2024-03-22T06:38:55;98453.72;;;13.21;55.23
34081;BME280;20358;50.272;19.026;2024-03-22T06:41:57;98445.00;;;13.21;55.32
34081;BME280;20358;50.272;19.026;2024-03-22T06:45:04;98441.75;;;13.31;55.18
34081;BME280;20358;50.272;19.026;2024-03-22T06:48:06;98450.63;;;13.29;55.12
34081;BME280;20358;50.272;19.026;2024-03-22T06:51:09;98454.78;;;13.33;55.09
34081;BME280;20358;50.272;19.026;2024-03-22T06:54:11;98450.16;;;13.22;55.55
34081;BME280;20358;50.272;19.026;2024-03-22T06:57:14;98457.59;;;13.30;55.46
34081;BME280;20358;50.272;19.026;2024-03-22T07:00:19;98429.63;;;13.29;55.27
34081;BME280;20358;50.272;19.026;2024-03-22T07:03:22;98450.69;;;13.43;55.27
34081;BME280;20358;50.272;19.026;2024-03-22T07:06:24;98443.09;;;13.52;54.88
34081;BME280;20358;50.272;19.026;2024-03-22T07:09:27;98449.09;;;13.40;55.12
34081;BME280;20358;50.272;19.026;2024-03-22T07:12:29;98448.72;;;13.46;55.23
34081;BME280;20358;50.272;19.026;2024-03-22T07:15:35;98453.88;;;13.48;55.22
34081;BME280;20358;50.272;19.026;2024-03-22T07:18:37;98446.22;;;13.59;55.06
34081;BME280;20358;50.272;19.026;2024-03-22T07:21:40;98455.38;;;13.52;55.35
34081;BME280;20358;50.272;19.026;2024-03-22T07:24:42;98450.28;;;13.35;56.01
34081;BME280;20358;50.272;19.026;2024-03-22T07:27:46;98448.81;;;13.15;56.72
34081;BME280;20358;50.272;19.026;2024-03-22T07:30:51;98443.72;;;13.28;56.71
34081;BME280;20358;50.272;19.026;2024-03-22T07:33:54;98449.66;;;13.16;56.98
34081;BME280;20358;50.272;19.026;2024-03-22T07:36:57;98449.25;;;13.07;57.52
34081;BME280;20358;50.272;19.026;2024-03-22T07:39:59;98445.25;;;13.16;57.20
34081;BME280;20358;50.272;19.026;2024-03-22T07:43:02;98432.25;;;13.29;57.01
34081;BME280;20358;50.272;19.026;2024-03-22T07:46:09;98442.00;;;13.27;56.99
34081;BME280;20358;50.272;19.026;2024-03-22T07:49:11;98440.53;;;13.23;57.27
34081;BME280;20358;50.272;19.026;2024-03-22T07:52:14;98441.50;;;13.36;57.06
34081;BME280;20358;50.272;19.026;2024-03-22T07:55:16;98431.56;;;13.55;56.64
34081;BME280;20358;50.272;19.026;2024-03-22T07:58:19;98428.47;;;13.62;56.44
34081;BME280;20358;50.272;19.026;2024-03-22T08:01:24;98440.00;;;13.60;56.26
34081;BME280;20358;50.272;19.026;2024-03-22T08:04:27;98429.91;;;13.54;56.58
34081;BME280;20358;50.272;19.026;2024-03-22T08:07:29;98418.94;;;13.61;56.42
34081;BME280;20358;50.272;19.026;2024-03-22T08:10:32;98430.06;;;13.65;56.35
34081;BME280;20358;50.272;19.026;2024-03-22T08:13:34;98424.66;;;13.54;56.54
34081;BME280;20358;50.272;19.026;2024-03-22T08:16:40;98433.09;;;13.59;56.70
34081;BME280;20358;50.272;19.026;2024-03-22T08:19:43;98425.56;;;13.67;56.47
34081;BME280;20358;50.272;19.026;2024-03-22T08:22:46;98425.13;;;13.75;56.28
34081;BME280;20358;50.272;19.026;2024-03-22T08:25:49;98436.47;;;13.75;56.27
34081;BME280;20358;50.272;19.026;2024-03-22T08:28:52;98432.34;;;13.71;56.41
34081;BME280;20358;50.272;19.026;2024-03-22T08:31:56;98439.66;;;13.80;56.25
34081;BME280;20358;50.272;19.026;2024-03-22T08:34:59;98439.28;;;13.58;56.62
34081;BME280;20358;50.272;19.026;2024-03-22T08:38:01;98429.91;;;13.54;56.88
34081;BME280;20358;50.272;19.026;2024-03-22T08:41:04;98434.69;;;13.61;56.90
34081;BME280;20358;50.272;19.026;2024-03-22T08:44:06;98415.06;;;13.67;56.71
34081;BME280;20358;50.272;19.026;2024-03-22T08:47:12;98432.72;;;13.93;56.28
34081;BME280;20358;50.272;19.026;2024-03-22T08:50:14;98428.50;;;13.91;55.76
34081;BME280;20358;50.272;19.026;2024-03-22T08:53:17;98431.78;;;13.66;56.41
34081;BME280;20358;50.272;19.026;2024-03-22T08:56:19;98438.63;;;13.83;56.19
34081;BME280;20358;50.272;19.026;2024-03-22T08:59:24;98431.75;;;13.80;56.13
34081;BME280;20358;50.272;19.026;2024-03-22T09:02:29;98434.59;;;13.63;56.40
34081;BME280;20358;50.272;19.026;2024-03-22T09:05:32;98411.22;;;13.58;56.10
34081;BME280;20358;50.272;19.026;2024-03-22T09:08:34;98436.38;;;13.77;56.16
34081;BME280;20358;50.272;19.026;2024-03-22T09:11:37;98376.50;;;13.53;55.95
34081;BME280;20358;50.272;19.026;2024-03-22T09:14:39;98428.69;;;14.02;55.61
34081;BME280;20358;50.272;19.026;2024-03-22T09:17:45;98429.91;;;13.82;55.71
34081;BME280;20358;50.272;19.026;2024-03-22T09:20:47;98429.34;;;14.05;55.40
34081;BME280;20358;50.272;19.026;2024-03-22T09:23:50;98428.59;;;14.32;54.78
34081;BME280;20358;50.272;19.026;2024-03-22T09:26:52;98432.44;;;14.26;54.58
34081;BME280;20358;50.272;19.026;2024-03-22T09:29:55;98411.94;;;14.45;54.41
34081;BME280;20358;50.272;19.026;2024-03-22T09:32:59;98412.94;;;14.57;53.96
34081;BME280;20358;50.272;19.026;2024-03-22T09:36:02;98409.75;;;14.52;53.84
34081;BME280;20358;50.272;19.026;2024-03-22T09:39:05;98418.41;;;14.54;53.62
34081;BME280;20358;50.272;19.026;2024-03-22T09:42:15;98408.84;;;14.39;53.97
34081;BME280;20358;50.272;19.026;2024-03-22T09:45:19;98407.72;;;14.43;54.25
34081;BME280;20358;50.272;19.026;2024-03-22T09:48:29;98410.38;;;14.55;53.81
34081;BME280;20358;50.272;19.026;2024-03-22T09:51:34;98404.84;;;14.60;53.69
34081;BME280;20358;50.272;19.026;2024-03-22T09:54:41;98380.56;;;14.69;53.11
34081;BME280;20358;50.272;19.026;2024-03-22T09:57:45;98397.25;;;14.82;53.03
34081;BME280;20358;50.272;19.026;2024-03-22T10:00:50;98391.16;;;14.94;52.51
34081;BME280;20358;50.272;19.026;2024-03-22T10:03:55;98385.31;;;15.16;52.41
34081;BME280;20358;50.272;19.026;2024-03-22T10:06:58;98379.22;;;15.28;51.92
34081;BME280;20358;50.272;19.026;2024-03-22T10:10:01;98371.72;;;15.48;51.55
34081;BME280;20358;50.272;19.026;2024-03-22T10:13:07;98375.06;;;15.76;51.00
34081;BME280;20358;50.272;19.026;2024-03-22T10:16:10;98370.41;;;15.92;50.41
34081;BME280;20358;50.272;19.026;2024-03-22T10:19:16;98382.00;;;16.02;49.23
34081;BME280;20358;50.272;19.026;2024-03-22T10:22:18;98374.84;;;15.79;49.72
34081;BME280;20358;50.272;19.026;2024-03-22T10:25:21;98370.00;;;15.73;49.66
34081;BME280;20358;50.272;19.026;2024-03-22T10:28:24;98364.84;;;15.71;49.52
34081;BME280;20358;50.272;19.026;2024-03-22T10:31:27;98361.97;;;15.87;49.48
34081;BME280;20358;50.272;19.026;2024-03-22T10:34:32;98351.78;;;16.06;49.19
34081;BME280;20358;50.272;19.026;2024-03-22T10:37:36;98356.22;;;16.18;48.70
34081;BME280;20358;50.272;19.026;2024-03-22T10:40:39;98352.53;;;16.21;47.98
34081;BME280;20358;50.272;19.026;2024-03-22T10:43:46;98348.69;;;16.25;48.31
34081;BME280;20358;50.272;19.026;2024-03-22T10:46:49;98333.56;;;16.39;47.80
34081;BME280;20358;50.272;19.026;2024-03-22T10:50:01;98332.66;;;16.51;47.29
34081;BME280;20358;50.272;19.026;2024-03-22T10:53:11;98331.38;;;16.81;47.50
34081;BME280;20358;50.272;19.026;2024-03-22T10:56:19;98319.19;;;16.91;46.33
34081;BME280;20358;50.272;19.026;2024-03-22T10:59:24;98324.28;;;17.16;46.25
34081;BME280;20358;50.272;19.026;2024-03-22T11:02:27;98325.72;;;17.20;45.58
34081;BME280;20358;50.272;19.026;2024-03-22T11:05:32;98321.44;;;17.30;45.31
34081;BME280;20358;50.272;19.026;2024-03-22T11:08:37;98321.44;;;17.30;45.51
34081;BME280;20358;50.272;19.026;2024-03-22T11:11:41;98312.03;;;17.04;45.61
34081;BME280;20358;50.272;19.026;2024-03-22T11:14:44;98312.38;;;17.10;45.92
34081;BME280;20358;50.272;19.026;2024-03-22T11:17:46;98307.69;;;17.03;45.49
34081;BME280;20358;50.272;19.026;2024-03-22T11:20:52;98295.69;;;16.99;45.72
34081;BME280;20358;50.272;19.026;2024-03-22T11:23:54;98303.38;;;17.13;45.78
34081;BME280;20358;50.272;19.026;2024-03-22T11:26:57;98306.72;;;17.15;45.43
34081;BME280;20358;50.272;19.026;2024-03-22T11:29:59;98293.88;;;17.10;45.54
34081;BME280;20358;50.272;19.026;2024-03-22T11:33:02;98294.94;;;16.97;45.55
34081;BME280;20358;50.272;19.026;2024-03-22T11:36:09;98284.63;;;16.94;45.64
34081;BME280;20358;50.272;19.026;2024-03-22T11:39:11;98288.72;;;17.09;45.34
34081;BME280;20358;50.272;19.026;2024-03-22T11:42:14;98287.75;;;16.99;45.45
34081;BME280;20358;50.272;19.026;2024-03-22T11:45:21;98282.38;;;17.22;45.69
34081;BME280;20358;50.272;19.026;2024-03-22T11:48:25;98273.97;;;17.28;45.04
34081;BME280;20358;50.272;19.026;2024-03-22T11:51:30;98267.88;;;17.39;45.11
34081;BME280;20358;50.272;19.026;2024-03-22T11:54:33;98273.84;;;17.41;45.05
34081;BME280;20358;50.272;19.026;2024-03-22T11:57:35;98268.81;;;17.49;45.07
34081;BME280;20358;50.272;19.026;2024-03-22T12:00:38;98264.00;;;17.43;44.19
34081;BME280;20358;50.272;19.026;2024-03-22T12:03:43;98261.16;;;17.35;44.27
34081;BME280;20358;50.272;19.026;2024-03-22T12:06:48;98264.00;;;17.21;44.74
34081;BME280;20358;50.272;19.026;2024-03-22T12:09:51;98262.34;;;17.31;44.99
34081;BME280;20358;50.272;19.026;2024-03-22T12:12:55;98261.03;;;17.48;44.38
34081;BME280;20358;50.272;19.026;2024-03-22T12:15:58;98256.06;;;17.43;44.50
34081;BME280;20358;50.272;19.026;2024-03-22T12:19:00;98255.59;;;17.38;44.57
34081;BME280;20358;50.272;19.026;2024-03-22T12:22:06;98249.22;;;17.41;44.58
34081;BME280;20358;50.272;19.026;2024-03-22T12:25:09;98247.44;;;17.30;44.60
34081;BME280;20358;50.272;19.026;2024-03-22T12:28:12;98248.16;;;17.32;44.67
34081;BME280;20358;50.272;19.026;2024-03-22T12:31:17;98247.41;;;17.08;44.96
34081;BME280;20358;50.272;19.026;2024-03-22T12:34:20;98238.28;;;17.01;45.53
34081;BME280;20358;50.272;19.026;2024-03-22T12:37:25;98236.84;;;17.08;45.27
34081;BME280;20358;50.272;19.026;2024-03-22T12:40:29;98225.81;;;17.14;45.45
34081;BME280;20358;50.272;19.026;2024-03-22T12:43:31;98225.59;;;17.17;45.51
34081;BME280;20358;50.272;19.026;2024-03-22T12:46:34;98228.47;;;17.36;45.25
34081;BME280;20358;50.272;19.026;2024-03-22T12:49:36;98214.88;;;17.52;45.22
34081;BME280;20358;50.272;19.026;2024-03-22T12:52:41;98210.34;;;17.43;44.66
34081;BME280;20358;50.272;19.026;2024-03-22T12:55:44;98213.56;;;17.24;44.23
34081;BME280;20358;50.272;19.026;2024-03-22T12:58:47;98192.44;;;17.35;44.30
34081;BME280;20358;50.272;19.026;2024-03-22T13:01:49;98191.97;;;17.63;44.50
34081;BME280;20358;50.272;19.026;2024-03-22T13:04:52;98176.56;;;17.68;43.76
34081;BME280;20358;50.272;19.026;2024-03-22T13:07:57;98178.00;;;17.61;44.00
34081;BME280;20358;50.272;19.026;2024-03-22T13:11:00;98175.34;;;17.72;43.61
34081;BME280;20358;50.272;19.026;2024-03-22T13:14:02;98180.75;;;17.82;43.51
34081;BME280;20358;50.272;19.026;2024-03-22T13:17:05;98174.72;;;17.80;43.42
34081;BME280;20358;50.272;19.026;2024-03-22T13:20:08;98172.69;;;17.72;43.54
34081;BME280;20358;50.272;19.026;2024-03-22T13:23:14;98170.50;;;17.77;44.05
34081;BME280;20358;50.272;19.026;2024-03-22T13:26:16;98166.28;;;17.86;43.46
34081;BME280;20358;50.272;19.026;2024-03-22T13:29:19;98169.56;;;17.78;43.34
34081;BME280;20358;50.272;19.026;2024-03-22T13:32:21;98170.72;;;17.85;43.79
34081;BME280;20358;50.272;19.026;2024-03-22T13:35:24;98157.25;;;18.00;43.44
34081;BME280;20358;50.272;19.026;2024-03-22T13:38:29;98160.66;;;17.79;42.92
34081;BME280;20358;50.272;19.026;2024-03-22T13:41:32;98158.06;;;17.46;43.81
34081;BME280;20358;50.272;19.026;2024-03-22T13:44:34;98157.47;;;17.43;44.04
34081;BME280;20358;50.272;19.026;2024-03-22T13:47:37;98137.75;;;17.47;44.39
34081;BME280;20358;50.272;19.026;2024-03-22T13:50:39;98154.94;;;17.41;44.11
34081;BME280;20358;50.272;19.026;2024-03-22T13:53:45;98151.59;;;17.39;44.02
34081;BME280;20358;50.272;19.026;2024-03-22T13:56:47;98142.44;;;17.43;43.95
34081;BME280;20358;50.272;19.026;2024-03-22T13:59:50;98139.44;;;17.48;43.89
34081;BME280;20358;50.272;19.026;2024-03-22T14:02:52;98130.69;;;17.36;44.02
34081;BME280;20358;50.272;19.026;2024-03-22T14:05:55;98130.91;;;17.44;44.04
34081;BME280;20358;50.272;19.026;2024-03-22T14:08:59;98118.88;;;17.51;43.69
34081;BME280;20358;50.272;19.026;2024-03-22T14:12:03;98125.63;;;17.55;43.91
34081;BME280;20358;50.272;19.026;2024-03-22T14:15:06;98115.91;;;17.56;43.44
34081;BME280;20358;50.272;19.026;2024-03-22T14:18:09;98110.25;;;17.60;43.51
34081;BME280;20358;50.272;19.026;2024-03-22T14:21:12;98114.06;;;17.67;43.69
34081;BME280;20358;50.272;19.026;2024-03-22T14:24:17;98117.78;;;17.76;43.46
34081;BME280;20358;50.272;19.026;2024-03-22T14:27:19;98103.25;;;17.70;43.34
34081;BME280;20358;50.272;19.026;2024-03-22T14:30:22;98106.84;;;17.69;43.40
34081;BME280;20358;50.272;19.026;2024-03-22T14:33:24;98107.47;;;17.62;43.75
34081;BME280;20358;50.272;19.026;2024-03-22T14:36:26;98100.63;;;17.59;43.54
34081;BME280;20358;50.272;19.026;2024-03-22T14:39:31;98103.78;;;17.42;44.02
34081;BME280;20358;50.272;19.026;2024-03-22T14:42:34;98105.19;;;17.46;43.90
34081;BME280;20358;50.272;19.026;2024-03-22T14:45:36;98090.06;;;17.48;43.98
34081;BME280;20358;50.272;19.026;2024-03-22T14:48:39;98097.41;;;17.45;43.81
34081;BME280;20358;50.272;19.026;2024-03-22T14:51:41;98091.28;;;17.55;44.12
34081;BME280;20358;50.272;19.026;2024-03-22T14:54:46;98083.78;;;17.71;43.97
34081;BME280;20358;50.272;19.026;2024-03-22T14:57:48;98081.81;;;17.84;43.77
34081;BME280;20358;50.272;19.026;2024-03-22T15:00:53;98082.44;;;17.97;43.69
34081;BME280;20358;50.272;19.026;2024-03-22T15:03:55;98075.44;;;18.08;43.42
34081;BME280;20358;50.272;19.026;2024-03-22T15:06:58;98082.84;;;18.14;43.33
34081;BME280;20358;50.272;19.026;2024-03-22T15:10:03;98073.25;;;18.13;43.11
34081;BME280;20358;50.272;19.026;2024-03-22T15:13:06;98068.00;;;18.22;43.42
34081;BME280;20358;50.272;19.026;2024-03-22T15:16:08;98062.97;;;18.19;42.86
34081;BME280;20358;50.272;19.026;2024-03-22T15:19:11;98070.78;;;18.21;42.79
34081;BME280;20358;50.272;19.026;2024-03-22T15:22:13;98057.38;;;18.13;42.86
34081;BME280;20358;50.272;19.026;2024-03-22T15:25:19;98064.56;;;18.11;43.21
34081;BME280;20358;50.272;19.026;2024-03-22T15:28:21;98064.56;;;18.11;42.91
34081;BME280;20358;50.272;19.026;2024-03-22T15:31:23;98057.16;;;18.05;42.93
34081;BME280;20358;50.272;19.026;2024-03-22T15:34:25;98050.38;;;17.91;43.13
34081;BME280;20358;50.272;19.026;2024-03-22T15:37:29;98057.47;;;17.90;43.47
34081;BME280;20358;50.272;19.026;2024-03-22T15:40:33;98049.94;;;17.86;43.36
34081;BME280;20358;50.272;19.026;2024-03-22T15:43:36;98054.50;;;17.84;43.77
34081;BME280;20358;50.272;19.026;2024-03-22T15:46:38;98047.94;;;17.78;43.73
34081;BME280;20358;50.272;19.026;2024-03-22T15:49:41;98045.81;;;17.61;44.27
34081;BME280;20358;50.272;19.026;2024-03-22T15:52:44;98046.56;;;17.52;44.71
34081;BME280;20358;50.272;19.026;2024-03-22T15:55:49;98041.59;;;17.27;45.70
34081;BME280;20358;50.272;19.026;2024-03-22T15:59:17;98050.78;;;17.12;46.35